Time;durP1;ratioP1;P1;durP2;ratioP2;P2;SDS_P1;SDS_P2;PMS_P1;PMS_P2;Temp;Humidity;BMP_temperature;BMP_pressure;BME280_temperature;BME280_humidity;BME280_pressure;Samples;Min_cycle;Max_cycle;Signal;HPM_P1;HPM_P2
2021/12/28 00:00:27;;;;;;;999.72;940.47;;;;;;;20.64;41.96;99239.00;4974544;28;20451;-83
2021/12/28 00:02:55;;;;;;;996.63;937.60;;;;;;;20.65;42.03;99234.31;4974126;28;20411;-83
2021/12/28 00:05:21;;;;;;;1000.33;940.90;;;;;;;20.64;41.93;99232.72;4983392;28;20027;-83
2021/12/28 00:07:47;;;;;;;999.15;939.88;;;;;;;20.64;41.74;99235.47;4955633;28;20031;-83
2021/12/28 00:10:15;;;;;;;976.90;920.50;;;;;;;20.62;41.88;99230.31;4951991;28;20669;-83
2021/12/28 00:12:41;;;;;;;996.13;937.33;;;;;;;20.61;41.93;99239.69;4973427;28;20525;-84
2021/12/28 00:18:02;;;;;;;997.75;938.58;;;;;;;20.61;41.89;99228.72;4973917;28;20050;-83
2021/12/28 00:20:43;;;;;;;995.50;936.58;;;;;;;20.61;42.24;99227.91;4974304;28;20098;-83
2021/12/28 00:23:39;;;;;;;927.47;878.92;;;;;;;20.60;41.88;99227.13;4973529;28;20030;-83
2021/12/28 00:26:10;;;;;;;973.35;917.40;;;;;;;20.59;41.74;99230.19;4964956;28;20527;-84
2021/12/28 00:28:36;;;;;;;922.13;874.92;;;;;;;20.58;41.85;99226.66;4968214;28;20030;-83
2021/12/28 00:31:02;;;;;;;994.42;935.72;;;;;;;20.58;42.01;99226.66;4972984;28;20050;-82
2021/12/28 00:33:27;;;;;;;928.28;879.25;;;;;;;20.57;42.19;99224.28;4973906;28;20368;-84
2021/12/28 00:35:53;;;;;;;998.25;939.08;;;;;;;20.56;42.27;99223.47;4972320;28;20074;-84
2021/12/28 00:38:22;;;;;;;923.05;874.97;;;;;;;20.57;41.87;99224.28;4971616;28;20055;-84
2021/12/28 00:40:57;;;;;;;993.30;934.63;;;;;;;20.56;42.11;99220.72;4972752;28;20038;-84
2021/12/28 00:43:23;;;;;;;919.97;872.53;;;;;;;20.56;42.04;99215.25;4972174;28;20034;-84
2021/12/28 00:45:48;;;;;;;996.17;937.30;;;;;;;20.55;41.82;99213.66;4972274;28;20042;-84
2021/12/28 00:48:14;;;;;;;1003.50;943.75;;;;;;;20.55;42.18;99207.38;4972883;28;20066;-84
2021/12/28 00:50:40;;;;;;;945.78;893.92;;;;;;;20.55;42.07;99210.13;4956148;28;20039;-85
2021/12/28 00:53:05;;;;;;;997.55;938.40;;;;;;;20.55;42.02;99205.44;4972066;28;20059;-84
2021/12/28 00:55:32;;;;;;;989.22;931.22;;;;;;;20.55;42.01;99201.88;4954289;28;20066;-84
2021/12/28 00:57:57;;;;;;;984.70;927.25;;;;;;;20.54;42.25;99192.84;4971967;28;20034;-84
2021/12/28 01:00:30;;;;;;;992.83;934.33;;;;;;;20.55;42.18;99196.41;4955332;28;20101;-84
2021/12/28 01:02:57;;;;;;;994.78;935.97;;;;;;;20.54;42.08;99192.84;4971849;28;20558;-86
2021/12/28 01:05:24;;;;;;;994.27;935.43;;;;;;;20.53;42.14;99181.03;4972294;28;20491;-83
2021/12/28 01:07:49;;;;;;;985.90;928.20;;;;;;;20.53;42.07;99183.00;4968942;28;20588;-83
2021/12/28 01:10:25;;;;;;;992.58;934.03;;;;;;;20.53;42.01;99180.25;4948746;28;20130;-83
2021/12/28 01:12:52;;;;;;;989.75;931.60;;;;;;;20.53;42.08;99172.03;4971781;28;20035;-84
2021/12/28 01:15:22;;;;;;;987.97;929.95;;;;;;;20.53;42.02;99172.03;4973163;28;20042;-84
2021/12/28 01:17:47;;;;;;;995.92;936.90;;;;;;;20.52;41.96;99164.94;4972310;28;20045;-85
2021/12/28 01:20:14;;;;;;;997.97;938.88;;;;;;;20.52;42.13;99167.69;4971964;28;20039;-84
2021/12/28 01:22:41;;;;;;;1001.80;942.20;;;;;;;20.51;42.08;99163.34;4954601;28;20043;-83
2021/12/28 01:25:07;;;;;;;999.75;940.33;;;;;;;20.52;42.35;99173.97;4969301;28;20031;-84
2021/12/28 01:27:33;;;;;;;996.17;936.88;;;;;;;20.51;42.17;99171.56;4973629;28;20035;-84
2021/12/28 01:29:58;;;;;;;1001.22;941.60;;;;;;;20.51;42.36;99168.81;4982084;28;20379;-86
2021/12/28 01:32:24;;;;;;;996.30;937.03;;;;;;;20.51;42.05;99163.34;4959331;28;20039;-84
2021/12/28 01:34:50;;;;;;;998.85;939.50;;;;;;;20.50;42.29;99168.03;4970414;28;20041;-84
2021/12/28 01:37:15;;;;;;;994.10;935.10;;;;;;;20.51;42.32;99164.16;4966409;28;20055;-84
2021/12/28 01:39:41;;;;;;;932.15;882.20;;;;;;;20.49;42.29;99160.97;4967430;28;20034;-84
2021/12/28 01:42:07;;;;;;;996.60;937.22;;;;;;;20.50;41.95;99165.28;4970531;28;20034;-84
2021/12/28 01:44:36;;;;;;;997.65;938.33;;;;;;;20.50;42.03;99168.03;4942937;28;20045;-84
2021/12/28 01:47:02;;;;;;;997.22;938.08;;;;;;;20.50;42.04;99169.97;4971651;28;20057;-84
2021/12/28 01:49:28;;;;;;;997.15;938.15;;;;;;;20.49;42.08;99173.88;4972914;28;20091;-85
2021/12/28 01:51:54;;;;;;;1003.53;943.65;;;;;;;20.49;42.16;99171.13;4971630;28;20478;-84
2021/12/28 01:54:20;;;;;;;1000.17;940.65;;;;;;;20.49;42.19;99171.13;4972207;28;20043;-84
2021/12/28 01:56:47;;;;;;;1003.50;943.67;;;;;;;20.49;42.12;99165.66;4955564;28;20134;-84
2021/12/28 01:59:15;;;;;;;1001.22;941.65;;;;;;;20.48;42.11;99169.53;4955110;28;20056;-84
2021/12/28 02:01:41;;;;;;;999.83;940.38;;;;;;;20.49;41.96;99173.88;4973149;28;20114;-84
2021/12/28 02:04:28;;;;;;;1001.92;942.33;;;;;;;20.48;42.23;99169.53;4970473;28;20462;-84
2021/12/28 02:06:57;;;;;;;997.95;938.70;;;;;;;20.47;41.77;99168.72;4972559;28;20467;-84
2021/12/28 02:09:23;;;;;;;993.85;935.22;;;;;;;20.48;42.03;99166.78;4955336;28;20050;-84
2021/12/28 02:11:49;;;;;;;995.85;936.95;;;;;;;20.47;41.58;99163.25;4959768;28;20047;-83
2021/12/28 02:14:14;;;;;;;997.20;938.10;;;;;;;20.46;41.91;99167.16;4952682;28;20039;-84
2021/12/28 02:16:42;;;;;;;999.85;940.50;;;;;;;20.46;41.67;99164.41;4957290;28;20034;-86
2021/12/28 02:19:10;;;;;;;997.72;938.50;;;;;;;20.45;41.66;99165.53;4973183;28;20039;-84
2021/12/28 02:21:37;;;;;;;1001.10;941.65;;;;;;;20.46;41.68;99163.56;4971143;28;20031;-84
2021/12/28 02:24:06;;;;;;;998.30;939.17;;;;;;;20.45;41.80;99160.03;4971015;28;20089;-84
2021/12/28 02:26:32;;;;;;;996.03;937.35;;;;;;;20.45;41.66;99153.75;4972451;28;20043;-84
2021/12/28 02:28:58;;;;;;;992.60;934.42;;;;;;;20.44;41.88;99144.75;4971677;28;20106;-84
2021/12/28 02:31:24;;;;;;;996.83;937.90;;;;;;;20.44;41.81;99149.44;4971789;28;20043;-83
2021/12/28 02:33:51;;;;;;;1000.38;941.05;;;;;;;20.44;41.56;99147.50;4952340;28;20035;-84
2021/12/28 02:36:17;;;;;;;991.80;933.42;;;;;;;20.44;41.87;99149.44;4957089;28;20034;-84
2021/12/28 02:38:43;;;;;;;997.40;938.55;;;;;;;20.44;41.99;99143.97;4954243;28;20145;-84
2021/12/28 02:41:10;;;;;;;1000.22;941.05;;;;;;;20.43;41.87;99139.59;4971743;28;20034;-84
2021/12/28 02:43:36;;;;;;;1002.05;942.72;;;;;;;20.42;41.56;99138.81;4938896;28;20539;-85
2021/12/28 02:46:05;;;;;;;1002.55;942.95;;;;;;;20.43;41.88;99131.38;4971473;28;20035;-84
2021/12/28 02:48:31;;;;;;;996.95;938.28;;;;;;;20.42;41.93;99127.84;4976376;28;20042;-84
2021/12/28 02:51:09;;;;;;;999.85;940.78;;;;;;;20.42;41.99;99122.34;4975254;28;20467;-84
2021/12/28 02:53:35;;;;;;;1008.00;947.47;;;;;;;20.42;42.06;99132.53;4987345;28;20058;-84
2021/12/28 02:56:03;;;;;;;1003.17;943.38;;;;;;;20.42;41.69;99127.03;4970527;28;20550;-84
2021/12/28 02:58:41;;;;;;;989.75;932.55;;;;;;;20.41;41.75;99117.19;4974755;28;20491;-85
2021/12/28 03:01:08;;;;;;;994.40;936.03;;;;;;;20.41;41.92;99117.19;4975670;28;20085;-84
2021/12/28 03:03:34;;;;;;;995.92;937.40;;;;;;;20.39;41.93;99114.81;4975308;28;20439;-84
2021/12/28 03:06:01;;;;;;;993.72;935.35;;;;;;;20.40;42.02;99113.66;4974354;28;20030;-84
2021/12/28 03:08:29;;;;;;;999.38;940.17;;;;;;;20.39;41.71;99112.09;4975028;28;20038;-84
2021/12/28 03:10:55;;;;;;;997.92;939.08;;;;;;;20.39;42.07;99111.28;4958184;28;20027;-84
2021/12/28 03:13:24;;;;;;;994.70;936.17;;;;;;;20.39;41.68;99120.31;4956058;28;20036;-84
2021/12/28 03:15:50;;;;;;;998.03;939.10;;;;;;;20.38;41.72;99118.69;4983606;28;20035;-84
2021/12/28 03:18:16;;;;;;;1000.85;941.53;;;;;;;20.39;41.79;99119.53;4975157;28;20038;-85
2021/12/28 03:20:41;;;;;;;1000.42;941.30;;;;;;;20.39;41.83;99122.25;4957695;28;20035;-84
2021/12/28 03:23:07;;;;;;;999.55;940.55;;;;;;;20.38;41.84;99121.44;4974028;28;20563;-84
2021/12/28 03:25:33;;;;;;;1001.95;942.50;;;;;;;20.38;41.90;99115.94;4973518;28;20041;-84
2021/12/28 03:28:02;;;;;;;1007.88;947.90;;;;;;;20.38;41.98;99120.66;4973174;28;20078;-84
2021/12/28 03:30:28;;;;;;;998.58;939.42;;;;;;;20.37;41.85;99119.06;4958141;28;20058;-84
2021/12/28 03:32:53;;;;;;;996.45;937.65;;;;;;;20.37;42.06;99119.06;4973352;28;20057;-84
2021/12/28 03:35:19;;;;;;;998.67;939.50;;;;;;;20.37;41.92;99110.84;4957347;28;20035;-84
2021/12/28 03:37:44;;;;;;;999.28;940.25;;;;;;;20.36;41.89;99114.72;4975074;28;20065;-84
2021/12/28 03:40:14;;;;;;;994.90;936.45;;;;;;;20.35;41.60;99102.94;4974670;28;20035;-84
2021/12/28 03:42:41;;;;;;;993.45;935.03;;;;;;;20.36;41.76;99095.50;4975381;28;20035;-84
2021/12/28 03:45:09;;;;;;;994.67;936.08;;;;;;;20.36;41.97;99081.81;4974760;28;20031;-84
2021/12/28 03:47:35;;;;;;;1006.10;945.85;;;;;;;20.36;41.82;99090.03;4988631;28;20070;-84
2021/12/28 03:50:04;;;;;;;997.72;938.42;;;;;;;20.36;42.19;99084.53;4975090;28;20078;-84
2021/12/28 03:52:29;;;;;;;1003.53;943.60;;;;;;;20.35;42.06;99086.50;4975948;28;20034;-84
2021/12/28 03:54:54;;;;;;;1002.83;943.03;;;;;;;20.35;41.86;99091.97;4972662;28;20394;-84
2021/12/28 03:57:20;;;;;;;992.63;933.88;;;;;;;20.35;42.20;99072.00;4974045;28;20093;-85
2021/12/28 03:59:45;;;;;;;1003.60;943.78;;;;;;;20.34;41.94;99071.19;4957420;28;20480;-84
2021/12/28 04:02:11;;;;;;;1003.67;943.55;;;;;;;20.34;41.87;99075.88;4972076;28;20089;-85
2021/12/28 04:04:36;;;;;;;1006.42;945.75;;;;;;;20.34;42.03;99078.63;4956941;28;20391;-84
2021/12/28 04:07:06;;;;;;;1002.35;942.15;;;;;;;20.34;42.17;99075.88;4973730;28;20479;-84
2021/12/28 04:09:59;;;;;;;1008.78;947.92;;;;;;;20.33;41.98;99069.59;4957340;28;20113;-85
2021/12/28 04:12:26;;;;;;;1002.67;942.45;;;;;;;20.32;41.97;99068.00;4974167;28;20042;-84
2021/12/28 04:14:51;;;;;;;1009.38;948.38;;;;;;;20.32;42.15;99070.75;4976284;28;20406;-84
2021/12/28 04:17:17;;;;;;;997.53;938.15;;;;;;;20.32;41.79;99068.00;4973811;28;20121;-86
2021/12/28 04:19:42;;;;;;;1001.10;941.50;;;;;;;20.31;42.00;99066.41;4974124;28;20039;-87
2021/12/28 04:22:08;;;;;;;999.33;940.00;;;;;;;20.30;42.18;99073.81;4973427;28;20046;-84
2021/12/28 04:24:33;;;;;;;1001.38;941.70;;;;;;;20.31;42.05;99069.16;4977017;28;20046;-84
2021/12/28 04:26:59;;;;;;;999.13;939.75;;;;;;;20.31;42.04;99075.44;4974336;28;20041;-84
2021/12/28 04:29:25;;;;;;;1004.47;944.40;;;;;;;20.30;41.99;99073.81;4972236;28;20035;-84
2021/12/28 04:31:51;;;;;;;1000.63;941.00;;;;;;;20.30;41.92;99075.78;4979902;28;20043;-84
2021/12/28 04:34:16;;;;;;;997.28;938.28;;;;;;;20.29;42.37;99072.25;4973771;28;20121;-84
2021/12/28 04:36:42;;;;;;;1001.70;942.20;;;;;;;20.29;42.15;99071.44;4971525;28;20480;-84
2021/12/28 04:39:08;;;;;;;1005.30;945.22;;;;;;;20.29;41.96;99074.97;4973811;28;20046;-84
2021/12/28 04:41:36;;;;;;;987.42;929.63;;;;;;;20.30;41.93;99078.50;4973846;28;20125;-84
2021/12/28 04:44:03;;;;;;;;;;;;;;;20.28;42.28;99067.88;4954842;28;20098;-84
2021/12/28 04:46:29;;;;;;;993.00;934.85;;;;;;;20.28;41.99;99078.06;4968534;28;20008;-84
2021/12/28 04:48:55;;;;;;;999.70;940.25;;;;;;;20.28;42.05;99078.84;4972156;28;20455;-85
2021/12/28 04:51:20;;;;;;;1002.38;942.70;;;;;;;20.27;42.08;99077.25;4973000;28;20066;-86
2021/12/28 04:53:48;;;;;;;999.75;940.22;;;;;;;20.27;42.12;99074.53;4976232;28;20114;-84
2021/12/28 04:56:13;;;;;;;1000.97;941.22;;;;;;;20.27;41.96;99069.03;4958148;28;20369;-84
2021/12/28 04:58:38;;;;;;;1000.80;941.22;;;;;;;20.28;41.94;99064.34;4972518;28;20177;-84
2021/12/28 05:01:04;;;;;;;1002.60;942.85;;;;;;;20.26;42.20;99064.72;4973339;28;20041;-84
2021/12/28 05:03:29;;;;;;;1008.03;947.58;;;;;;;20.27;41.89;99057.28;4971155;28;20031;-84
2021/12/28 05:05:55;;;;;;;1004.28;944.05;;;;;;;20.27;42.25;99058.06;4971362;28;20479;-84
2021/12/28 05:08:21;;;;;;;1005.08;944.85;;;;;;;20.27;42.47;99052.59;4972940;28;20035;-84
2021/12/28 05:10:49;;;;;;;996.75;937.33;;;;;;;20.27;42.42;99049.06;4973452;28;20038;-84
2021/12/28 05:13:14;;;;;;;998.33;938.85;;;;;;;20.26;42.07;99044.69;4948106;28;20039;-85
2021/12/28 05:15:44;;;;;;;1000.63;940.97;;;;;;;20.26;42.21;99045.53;4971221;28;20046;-84
2021/12/28 05:18:11;;;;;;;998.20;938.70;;;;;;;20.26;42.20;99051.00;4971269;28;20093;-84
2021/12/28 05:20:37;;;;;;;995.00;935.92;;;;;;;20.25;42.20;99046.66;4986795;28;20089;-84
2021/12/28 05:23:03;;;;;;;994.35;935.17;;;;;;;20.26;42.27;99042.78;4944199;28;20101;-84
2021/12/28 05:25:29;;;;;;;1000.22;940.60;;;;;;;20.27;42.39;99043.56;4972803;28;20035;-84
2021/12/28 05:27:54;;;;;;;1001.75;941.60;;;;;;;20.26;42.15;99047.44;4968187;28;20388;-85
2021/12/28 05:30:19;;;;;;;999.33;939.88;;;;;;;20.25;42.40;99041.16;4926805;28;20034;-84
2021/12/28 05:32:45;;;;;;;998.05;938.60;;;;;;;20.25;42.13;99043.91;4955013;28;20093;-84
2021/12/28 05:35:10;;;;;;;1009.90;949.10;;;;;;;20.26;42.42;99040.03;4972218;28;20124;-84
2021/12/28 05:37:37;;;;;;;1001.35;941.50;;;;;;;20.26;42.31;99041.97;4972008;28;20054;-83
2021/12/28 05:40:04;;;;;;;1006.80;946.50;;;;;;;20.25;42.11;99041.16;4955587;28;20030;-84
2021/12/28 05:42:30;;;;;;;1014.47;952.90;;;;;;;20.25;42.21;99038.44;4970749;28;20050;-82
2021/12/28 05:44:55;;;;;;;1016.25;954.42;;;;;;;20.25;42.15;99032.16;4971969;28;21222;-84
2021/12/28 05:47:20;;;;;;;1019.47;957.60;;;;;;;20.24;42.42;99028.63;4970738;28;20046;-84
2021/12/28 05:49:46;;;;;;;1012.38;950.97;;;;;;;20.25;42.40;99026.66;4971326;28;20407;-84
2021/12/28 05:52:12;;;;;;;1011.85;950.47;;;;;;;20.24;42.20;99020.41;4972879;28;20093;-83
2021/12/28 05:54:37;;;;;;;1012.78;951.40;;;;;;;20.25;42.48;99018.44;4959194;28;20131;-86
2021/12/28 05:57:03;;;;;;;1010.70;949.58;;;;;;;20.24;42.53;99014.91;4972550;28;20070;-84
2021/12/28 05:59:28;;;;;;;1014.05;952.38;;;;;;;20.24;42.33;99017.66;4972237;28;20122;-85
2021/12/28 06:01:54;;;;;;;1006.20;945.53;;;;;;;20.24;42.04;99008.63;4979575;28;20043;-84
2021/12/28 06:04:19;;;;;;;1011.17;950.00;;;;;;;20.24;42.47;99003.16;4972305;28;20065;-84
2021/12/28 06:06:45;;;;;;;1009.13;948.13;;;;;;;20.24;42.27;99001.19;4958409;28;20073;-84
2021/12/28 06:09:10;;;;;;;1011.92;950.80;;;;;;;20.24;42.19;99005.91;4952164;29;20047;-84
2021/12/28 06:11:36;;;;;;;1003.67;943.47;;;;;;;20.25;42.24;99005.53;4957540;28;20038;-84
2021/12/28 06:14:02;;;;;;;1011.22;949.88;;;;;;;20.23;42.36;98994.09;4954673;28;20038;-84
2021/12/28 06:16:27;;;;;;;999.72;939.90;;;;;;;20.23;42.16;98991.38;4971484;28;20117;-85
2021/12/28 06:18:53;;;;;;;994.53;935.40;;;;;;;20.24;42.31;98983.97;4949877;28;20043;-95
2021/12/28 06:21:18;;;;;;;999.47;939.78;;;;;;;20.23;42.23;98991.38;4953341;28;20106;-88
2021/12/28 06:23:44;;;;;;;997.15;937.63;;;;;;;20.22;42.05;98984.31;4966786;28;20043;-86
2021/12/28 06:26:09;;;;;;;1010.03;949.17;;;;;;;20.23;42.29;98991.38;4971127;28;20433;-86
2021/12/28 06:28:35;;;;;;;1003.13;943.05;;;;;;;20.23;42.36;98990.56;4970107;28;20043;-86
2021/12/28 06:31:01;;;;;;;998.58;938.92;;;;;;;20.23;42.35;98990.56;4956781;28;20443;-85
2021/12/28 06:33:27;;;;;;;1005.15;944.97;;;;;;;20.22;42.35;98986.25;4974017;28;20528;-85
2021/12/28 06:35:54;;;;;;;1011.72;950.55;;;;;;;20.22;42.42;98983.50;4972061;28;20124;-91
2021/12/28 06:38:21;;;;;;;998.67;939.17;;;;;;;20.23;43.02;98982.34;4956585;28;20085;-86
2021/12/28 06:40:46;;;;;;;1008.55;947.65;;;;;;;20.23;42.90;98985.09;4973247;28;20057;-87
2021/12/28 06:43:12;;;;;;;1009.13;948.15;;;;;;;20.23;43.33;98983.13;4972989;28;20452;-85
2021/12/28 06:45:38;;;;;;;1012.55;950.70;;;;;;;20.24;43.79;98982.00;4955383;28;20039;-84
2021/12/28 06:48:04;;;;;;;1012.63;951.25;;;;;;;20.25;43.68;98986.34;4973052;28;20041;-84
2021/12/28 06:50:30;;;;;;;1007.30;946.58;;;;;;;20.27;43.96;98988.75;4972048;28;20130;-84
2021/12/28 06:52:55;;;;;;;1004.90;944.55;;;;;;;20.27;43.70;98981.31;4974034;28;20472;-84
2021/12/28 06:55:21;;;;;;;1011.92;950.83;;;;;;;20.28;43.51;98980.16;4972606;28;20039;-82
2021/12/28 06:57:46;;;;;;;995.08;936.33;;;;;;;20.29;43.88;98984.50;4985891;28;20034;-84
2021/12/28 07:00:15;;;;;;;999.38;939.97;;;;;;;20.30;43.95;98988.03;4968413;28;20093;-86
2021/12/28 07:02:42;;;;;;;1004.75;944.53;;;;;;;20.30;43.76;98988.81;4972435;28;20559;-84
2021/12/28 07:05:08;;;;;;;1004.00;943.88;;;;;;;20.31;43.75;99000.63;4955895;28;20511;-83
2021/12/28 07:07:34;;;;;;;1011.70;950.65;;;;;;;20.31;43.90;98995.91;4969320;28;20038;-84
2021/12/28 07:09:59;;;;;;;1003.83;943.58;;;;;;;20.31;43.85;98986.91;4967542;28;20403;-84
2021/12/28 07:12:25;;;;;;;1008.90;948.15;;;;;;;20.32;44.01;98988.47;4973667;28;20043;-84
2021/12/28 07:14:50;;;;;;;1004.42;944.05;;;;;;;20.31;43.95;98990.44;4971976;28;20035;-86
2021/12/28 07:17:16;;;;;;;1011.92;950.70;;;;;;;20.31;43.75;98970.44;4971783;28;20496;-85
2021/12/28 07:19:41;;;;;;;1003.40;943.47;;;;;;;20.32;43.82;98970.09;4957096;28;20043;-86
2021/12/28 07:22:07;;;;;;;1008.67;948.03;;;;;;;20.32;43.69;98980.25;4973481;28;20403;-85
2021/12/28 07:24:33;;;;;;;1008.70;948.05;;;;;;;20.32;43.93;98981.03;4972039;28;20038;-85
2021/12/28 07:26:58;;;;;;;1013.63;952.35;;;;;;;20.32;44.00;98980.25;4976061;28;20073;-83
2021/12/28 07:29:23;;;;;;;996.65;937.53;;;;;;;20.31;43.91;98976.72;4945779;28;20093;-84
2021/12/28 07:31:50;;;;;;;1002.72;942.92;;;;;;;20.32;43.76;98983.78;4972747;28;20471;-84
2021/12/28 07:34:16;;;;;;;1007.33;946.72;;;;;;;20.33;43.48;98987.31;4970048;28;20090;-84
2021/12/28 07:36:43;;;;;;;1010.30;949.35;;;;;;;20.32;43.67;98983.78;4971428;28;20034;-87
2021/12/28 07:39:08;;;;;;;1012.55;951.22;;;;;;;20.32;43.73;98975.56;4973189;28;20038;-88
2021/12/28 07:41:34;;;;;;;1011.53;950.38;;;;;;;20.32;43.68;98983.78;4972722;28;20101;-86
2021/12/28 07:43:59;;;;;;;1009.20;948.42;;;;;;;20.32;43.90;98977.50;4972498;28;20045;-86
2021/12/28 07:46:25;;;;;;;1006.28;945.58;;;;;;;20.32;43.47;98970.09;4971261;28;20093;-90
2021/12/28 07:48:51;;;;;;;1007.58;946.88;;;;;;;20.33;43.93;98970.88;4954092;28;20033;-87
2021/12/28 07:51:16;;;;;;;1009.78;948.95;;;;;;;20.32;44.35;98961.84;4969160;28;20034;-85
2021/12/28 07:53:42;;;;;;;1004.45;944.13;;;;;;;20.34;44.25;98957.97;4969429;28;20035;-82
2021/12/28 07:56:07;;;;;;;1007.83;947.17;;;;;;;20.34;44.73;98971.69;4954118;28;20043;-82
2021/12/28 07:58:33;;;;;;;1003.78;943.45;;;;;;;20.32;45.05;98964.59;4971195;28;20083;-83
2021/12/28 08:00:59;;;;;;;1007.83;947.05;;;;;;;20.34;45.14;98957.97;4969792;28;20039;-83
2021/12/28 08:03:24;;;;;;;1000.42;940.53;;;;;;;20.35;45.18;98965.06;4971745;28;20042;-84
2021/12/28 08:05:51;;;;;;;1014.65;953.35;;;;;;;20.35;45.47;98960.34;4970648;28;20048;-83
2021/12/28 08:08:17;;;;;;;1008.47;947.90;;;;;;;20.37;45.21;98962.75;4954430;28;20062;-83
2021/12/28 08:10:43;;;;;;;1007.83;947.00;;;;;;;20.38;45.03;98967.09;4971344;28;20073;-83
2021/12/28 08:13:08;;;;;;;1016.33;954.50;;;;;;;20.39;45.04;98960.47;4971422;28;20495;-83
2021/12/28 08:15:34;;;;;;;1009.28;948.28;;;;;;;20.40;45.19;98954.63;4972552;28;20043;-85
2021/12/28 08:18:02;;;;;;;1014.30;952.50;;;;;;;20.42;45.00;98960.53;4932257;28;20043;-85
2021/12/28 08:20:28;;;;;;;1017.65;955.47;;;;;;;20.44;44.92;98949.25;4968669;28;20121;-84
2021/12/28 08:22:53;;;;;;;1016.78;955.28;;;;;;;20.45;44.92;98956.31;4972317;28;20122;-87
2021/12/28 08:25:20;;;;;;;1017.58;955.80;;;;;;;20.47;44.74;98959.50;4970056;28;20043;-83
2021/12/28 08:27:46;;;;;;;1017.58;955.78;;;;;;;20.49;44.66;98952.50;4970165;28;20090;-84
2021/12/28 08:30:13;;;;;;;1015.42;953.90;;;;;;;20.52;45.05;98956.50;4969314;28;20046;-82
2021/12/28 08:32:38;;;;;;;1013.75;952.28;;;;;;;20.55;45.07;98941.31;4968365;28;20046;-85
2021/12/28 08:35:05;;;;;;;1012.88;951.45;;;;;;;20.58;44.85;98949.63;4964849;28;20441;-81
2021/12/28 08:37:30;;;;;;;1007.33;946.47;;;;;;;20.61;44.70;98948.91;4968722;28;20058;-81
2021/12/28 08:39:56;;;;;;;1016.08;954.25;;;;;;;20.66;45.07;98951.41;4966540;28;20407;-82
2021/12/28 08:42:22;;;;;;;1005.97;945.17;;;;;;;20.69;45.00;98947.94;4964803;28;20042;-80
2021/12/28 08:44:48;;;;;;;1009.53;948.35;;;;;;;20.73;44.98;98948.81;4969618;28;20113;-85
2021/12/28 08:47:13;;;;;;;1006.33;945.65;;;;;;;20.77;44.97;98948.13;4968441;28;20085;-82
2021/12/28 08:49:39;;;;;;;1008.08;947.00;;;;;;;20.77;44.88;98943.44;4948784;28;20039;-83
2021/12/28 08:52:04;;;;;;;1012.33;950.90;;;;;;;20.78;44.61;98944.22;4968017;28;20039;-83
2021/12/28 08:54:30;;;;;;;1016.75;954.58;;;;;;;20.78;44.59;98939.53;4967605;28;20028;-86
2021/12/28 08:56:56;;;;;;;1015.80;953.85;;;;;;;20.78;44.77;98934.03;4968633;28;20038;-85
2021/12/28 08:59:22;;;;;;;1004.60;943.97;;;;;;;20.80;44.28;98937.22;4953962;28;20065;-83
2021/12/28 09:01:49;;;;;;;1011.95;950.47;;;;;;;20.80;44.58;98931.75;4967858;28;20035;-83
2021/12/28 09:04:15;;;;;;;1011.92;950.55;;;;;;;20.82;44.18;98943.16;4969814;28;20039;-85
2021/12/28 09:06:41;;;;;;;1013.97;952.33;;;;;;;20.82;44.22;98929.44;4966485;28;20480;-85
2021/12/28 09:09:06;;;;;;;1005.70;944.97;;;;;;;20.82;44.13;98929.44;4932691;28;20122;-84
2021/12/28 09:11:32;;;;;;;1011.03;949.58;;;;;;;20.85;44.34;98933.41;4936904;28;20038;-86
2021/12/28 09:13:58;;;;;;;1004.65;943.88;;;;;;;20.85;44.17;98922.44;4965466;28;20133;-87
2021/12/28 09:16:23;;;;;;;1001.97;941.42;;;;;;;20.86;44.03;98926.78;4969801;28;20034;-85
2021/12/28 09:18:49;;;;;;;1003.30;942.63;;;;;;;20.86;44.35;98913.06;4951171;28;20058;-87
2021/12/28 09:21:15;;;;;;;1003.38;942.75;;;;;;;20.87;44.21;98917.41;4933047;28;20043;-88
2021/12/28 09:23:41;;;;;;;1005.60;944.67;;;;;;;20.87;43.94;98915.44;4950171;28;20038;-84
2021/12/28 09:26:06;;;;;;;1010.05;948.63;;;;;;;20.88;44.14;98908.78;4967146;28;20066;-86
2021/12/28 09:28:32;;;;;;;1010.17;948.53;;;;;;;20.89;43.98;98915.91;4952159;28;20050;-89
2021/12/28 09:30:57;;;;;;;1009.17;947.63;;;;;;;20.90;43.87;98912.00;4966436;28;20035;-89
2021/12/28 09:33:24;;;;;;;1008.28;946.88;;;;;;;20.91;43.87;98910.81;4968714;28;20073;-84
2021/12/28 09:35:51;;;;;;;1006.60;945.53;;;;;;;20.92;43.84;98906.16;4951871;28;20095;-82
2021/12/28 09:38:19;;;;;;;1008.65;947.40;;;;;;;20.91;43.83;98908.06;4968597;28;20126;-84
2021/12/28 09:40:46;;;;;;;1016.65;954.40;;;;;;;20.92;43.90;98904.19;4950993;28;20045;-84
2021/12/28 09:43:13;;;;;;;1007.85;946.53;;;;;;;20.92;43.63;98897.91;4969224;28;20085;-81
2021/12/28 09:45:38;;;;;;;1014.47;952.28;;;;;;;20.93;44.02;98896.75;4967802;28;20049;-83
2021/12/28 09:48:04;;;;;;;1010.72;949.22;;;;;;;20.92;43.60;98890.47;4983503;28;20031;-87
2021/12/28 09:50:31;;;;;;;1012.28;950.50;;;;;;;20.92;43.76;98895.97;4968370;28;20038;-83
2021/12/28 09:52:56;;;;;;;1011.95;950.20;;;;;;;20.91;43.89;98877.88;4949257;28;20102;-84
2021/12/28 09:55:24;;;;;;;1004.63;944.03;;;;;;;20.91;43.91;98877.88;4968785;28;20031;-84
2021/12/28 09:57:51;;;;;;;1002.10;941.67;;;;;;;20.90;43.88;98878.25;4967791;28;20126;-85
2021/12/28 10:00:18;;;;;;;1007.05;945.85;;;;;;;20.90;43.88;98870.03;4972197;28;20042;-84
2021/12/28 10:02:46;;;;;;;1004.63;943.75;;;;;;;20.90;43.88;98870.81;4972420;28;20042;-83
2021/12/28 10:05:16;;;;;;;994.67;935.38;;;;;;;20.90;43.79;98862.59;4972589;28;20035;-86
2021/12/28 10:07:56;;;;;;;999.28;939.17;;;;;;;20.89;43.59;98858.25;4972864;28;20066;-85
2021/12/28 10:10:30;;;;;;;1001.75;941.33;;;;;;;20.91;43.95;98871.59;4973882;28;20117;-87
2021/12/28 10:13:20;;;;;;;1009.30;947.92;;;;;;;20.90;43.75;98859.84;4964239;28;20094;-86
2021/12/28 10:15:48;;;;;;;1003.55;943.03;;;;;;;20.89;43.79;98851.97;4967945;28;20043;-86
2021/12/28 10:18:14;;;;;;;1006.47;945.40;;;;;;;20.88;43.45;98842.94;4971721;28;20129;-83
2021/12/28 10:20:43;;;;;;;1002.80;942.03;;;;;;;20.88;43.36;98829.22;4973128;28;20114;-84
2021/12/28 10:23:15;;;;;;;1004.22;943.33;;;;;;;20.89;43.71;98830.81;4971285;28;20117;-83
2021/12/28 10:25:56;;;;;;;1002.28;941.50;;;;;;;20.89;43.73;98838.22;4974404;28;20031;-86
2021/12/28 10:28:34;;;;;;;1001.95;941.42;;;;;;;20.92;43.63;98830.09;4988965;28;20027;-85
2021/12/28 10:31:05;;;;;;;1012.90;950.97;;;;;;;20.96;43.59;98828.25;4971380;28;20051;-84
2021/12/28 10:33:34;;;;;;;1013.83;951.85;;;;;;;21.01;43.62;98829.88;4973533;28;20069;-85
2021/12/28 10:36:03;;;;;;;1012.88;951.03;;;;;;;21.05;43.84;98828.03;4970008;28;20066;-82
2021/12/28 10:38:33;;;;;;;1007.97;946.55;;;;;;;21.09;43.68;98836.31;4972859;28;20077;-83
2021/12/28 10:41:05;;;;;;;999.75;939.40;;;;;;;21.13;43.85;98826.22;4972014;28;20071;-83
2021/12/28 10:43:36;;;;;;;1002.38;941.88;;;;;;;21.17;43.80;98827.88;4972041;28;20031;-83
2021/12/28 10:46:10;;;;;;;999.05;938.83;;;;;;;21.21;43.62;98821.66;4972304;28;20101;-83
2021/12/28 10:48:47;;;;;;;1001.78;941.38;;;;;;;21.25;43.88;98822.56;4973489;28;20106;-83
2021/12/28 10:51:14;;;;;;;1007.33;945.90;;;;;;;21.24;43.21;98819.00;4971853;28;20382;-81
2021/12/28 10:53:48;;;;;;;1010.30;948.50;;;;;;;21.23;43.33;98822.09;4973333;28;20023;-83
2021/12/28 10:56:14;;;;;;;1012.88;950.53;;;;;;;21.21;43.34;98807.94;4971859;28;20380;-83
2021/12/28 10:58:43;;;;;;;1014.83;952.40;;;;;;;21.19;43.35;98811.03;4971799;28;20641;-85